Time;durP1;ratioP1;P1;durP2;ratioP2;P2;SDS_P1;SDS_P2;PMS_P1;PMS_P2;Temp;Humidity;BMP_temperature;BMP_pressure;BME280_temperature;BME280_humidity;BME280_pressure;Samples;Min_cycle;Max_cycle;Signal;HPM_P1;HPM_P2
2022/12/05 00:02:04;;;;;;;35.80;21.17;;;;;;;;;;5077839;28;20277;-80
2022/12/05 00:04:30;;;;;;;38.43;21.33;;;;;;;;;;5073186;28;20194;-79
2022/12/05 00:06:56;;;;;;;38.97;20.77;;;;;;;;;;5068925;28;20180;-77
2022/12/05 00:09:24;;;;;;;44.80;23.10;;;;;;;;;;5066045;28;20298;-77
2022/12/05 00:11:50;;;;;;;40.17;22.60;;;;;;;;;;5081630;28;20186;-81
2022/12/05 00:14:16;;;;;;;40.47;21.83;;;;;;;;;;5080274;28;21681;-79
2022/12/05 00:16:43;;;;;;;41.37;20.73;;;;;;;;;;5062181;28;20256;-79
2022/12/05 00:19:11;;;;;;;36.23;20.07;;;;;;;;;;5063735;28;20204;-79
2022/12/05 00:21:38;;;;;;;34.37;20.43;;;;;;;;;;5080701;28;20187;-77
2022/12/05 00:24:05;;;;;;;34.97;20.20;;;;;;;;;;5068843;28;20184;-77
2022/12/05 00:26:32;;;;;;;38.77;21.27;;;;;;;;;;5087333;28;20180;-77
2022/12/05 00:28:58;;;;;;;34.67;20.23;;;;;;;;;;5081754;28;20209;-78
2022/12/05 00:31:25;;;;;;;38.40;21.23;;;;;;;;;;5068289;28;20187;-78
2022/12/05 00:33:52;;;;;;;38.20;21.67;;;;;;;;;;5085583;28;20176;-77
2022/12/05 00:36:20;;;;;;;37.50;21.67;;;;;;;;;;5091445;28;20208;-78
2022/12/05 00:38:46;;;;;;;35.53;20.93;;;;;;;;;;5085441;28;20200;-77
2022/12/05 00:41:14;;;;;;;35.80;21.27;;;;;;;;;;5091989;28;20181;-77
2022/12/05 00:43:40;;;;;;;38.93;21.67;;;;;;;;;;5087635;28;20600;-77
2022/12/05 00:46:08;;;;;;;35.80;21.60;;;;;;;;;;5056382;28;20221;-77
2022/12/05 00:48:34;;;;;;;43.87;21.60;;;;;;;;;;5073300;28;20203;-77
2022/12/05 00:51:05;;;;;;;38.20;21.07;;;;;;;;;;5064261;28;20173;-79
2022/12/05 00:53:31;;;;;;;34.13;20.77;;;;;;;;;;5083458;28;20171;-77
2022/12/05 00:56:05;;;;;;;40.00;21.83;;;;;;;;;;5078273;28;20820;-79
2022/12/05 00:58:32;;;;;;;36.97;21.00;;;;;;;;;;5090635;28;20753;-77
2022/12/05 01:01:04;;;;;;;39.00;20.80;;;;;;;;;;5091814;28;20493;-78
2022/12/05 01:03:30;;;;;;;38.13;21.30;;;;;;;;;;5077499;28;20169;-77
2022/12/05 01:05:58;;;;;;;40.03;22.60;;;;;;;;;;5079405;28;20196;-77
2022/12/05 01:08:24;;;;;;;37.73;21.67;;;;;;;;;;5096153;28;20217;-77
2022/12/05 01:10:54;;;;;;;38.03;21.03;;;;;;;;;;5086630;28;21119;-78
2022/12/05 01:13:21;;;;;;;39.00;20.63;;;;;;;;;;5084241;28;20183;-79
2022/12/05 01:15:47;;;;;;;40.40;21.93;;;;;;;;;;5070931;28;20557;-77
2022/12/05 01:18:14;;;;;;;37.43;21.27;;;;;;;;;;5088169;28;20209;-77
2022/12/05 01:20:40;;;;;;;38.13;20.37;;;;;;;;;;5084674;28;20187;-78
2022/12/05 01:23:06;;;;;;;42.40;21.90;;;;;;;;;;5081946;28;20180;-79
2022/12/05 01:25:32;;;;;;;45.33;23.03;;;;;;;;;;5084158;28;20184;-78
2022/12/05 01:27:59;;;;;;;42.63;23.07;;;;;;;;;;5078904;28;20212;-77
2022/12/05 01:30:26;;;;;;;40.20;22.37;;;;;;;;;;5085762;28;20248;-77
2022/12/05 01:32:52;;;;;;;44.10;23.20;;;;;;;;;;5082151;28;20241;-77
2022/12/05 01:35:19;;;;;;;45.63;21.57;;;;;;;;;;5086879;28;20172;-80
2022/12/05 01:37:45;;;;;;;40.10;22.30;;;;;;;;;;5092499;28;20205;-77
2022/12/05 01:40:12;;;;;;;39.53;21.50;;;;;;;;;;5075853;28;20184;-77
2022/12/05 01:42:39;;;;;;;36.27;19.57;;;;;;;;;;5094110;28;20296;-78
2022/12/05 01:45:15;;;;;;;37.10;19.83;;;;;;;;;;5087953;28;20183;-78
2022/12/05 01:47:43;;;;;;;44.43;22.20;;;;;;;;;;5073870;28;20283;-78
2022/12/05 01:50:10;;;;;;;43.23;21.67;;;;;;;;;;5091030;28;20208;-77
2022/12/05 01:52:37;;;;;;;36.93;20.90;;;;;;;;;;5071014;28;20174;-77
2022/12/05 01:55:06;;;;;;;38.80;22.17;;;;;;;;;;5075253;28;20167;-77
2022/12/05 01:57:32;;;;;;;45.20;22.20;;;;;;;;;;5079799;28;20262;-77
2022/12/05 02:00:01;;;;;;;41.10;20.83;;;;;;;;;;5092673;28;20187;-77
2022/12/05 02:02:39;;;;;;;41.33;21.07;;;;;;;;;;5067854;28;20180;-77
2022/12/05 02:05:11;;;;;;;37.70;19.87;;;;;;;;;;5076115;28;20267;-77
2022/12/05 02:07:38;;;;;;;37.60;20.77;;;;;;;;;;5079464;28;20266;-77
2022/12/05 02:10:05;;;;;;;38.03;20.93;;;;;;;;;;5071148;28;20189;-78
2022/12/05 02:12:31;;;;;;;44.23;21.83;;;;;;;;;;5077944;28;20179;-79
2022/12/05 02:15:03;;;;;;;36.30;20.63;;;;;;;;;;5066047;28;20188;-77
2022/12/05 02:17:37;;;;;;;40.33;21.00;;;;;;;;;;5075262;28;20269;-78
2022/12/05 02:20:05;;;;;;;35.73;20.10;;;;;;;;;;5083905;28;20212;-77
2022/12/05 02:22:34;;;;;;;40.90;21.97;;;;;;;;;;5073970;28;20235;-80
2022/12/05 02:25:03;;;;;;;38.07;20.07;;;;;;;;;;5085903;28;20670;-79
2022/12/05 02:27:48;;;;;;;41.07;21.37;;;;;;;;;;5073804;28;20745;-77
2022/12/05 02:30:18;;;;;;;36.17;19.27;;;;;;;;;;5070010;28;20688;-78
2022/12/05 02:32:44;;;;;;;38.27;19.03;;;;;;;;;;5069970;28;20216;-78
2022/12/05 02:35:18;;;;;;;47.43;22.77;;;;;;;;;;5075422;28;20235;-79
2022/12/05 02:37:53;;;;;;;40.97;20.60;;;;;;;;;;5081025;28;20232;-78
2022/12/05 02:40:30;;;;;;;33.50;19.60;;;;;;;;;;5079531;28;20187;-78
2022/12/05 02:43:05;;;;;;;45.93;23.13;;;;;;;;;;5074800;28;20188;-78
2022/12/05 02:45:33;;;;;;;43.70;20.77;;;;;;;;;;5083892;28;20234;-78
2022/12/05 02:48:00;;;;;;;48.07;20.83;;;;;;;;;;5075287;28;21761;-78
2022/12/05 02:50:32;;;;;;;47.73;22.43;;;;;;;;;;5079779;28;20295;-78
2022/12/05 02:53:01;;;;;;;48.90;22.70;;;;;;;;;;5084253;28;20232;-77
2022/12/05 02:55:30;;;;;;;45.90;21.97;;;;;;;;;;5101286;28;20241;-79
2022/12/05 02:57:58;;;;;;;45.03;21.87;;;;;;;;;;5087983;28;20204;-77
2022/12/05 03:00:24;;;;;;;51.57;23.27;;;;;;;;;;5089375;28;20204;-79
2022/12/05 03:02:54;;;;;;;49.67;22.77;;;;;;;;;;5081586;28;20280;-79
2022/12/05 03:05:26;;;;;;;47.57;23.37;;;;;;;;;;5090078;28;20229;-78
2022/12/05 03:07:54;;;;;;;44.10;20.20;;;;;;;;;;5079681;28;20525;-77
2022/12/05 03:10:22;;;;;;;37.70;19.67;;;;;;;;;;5088443;28;20196;-77
2022/12/05 03:12:50;;;;;;;40.47;19.40;;;;;;;;;;5083751;28;20181;-78
2022/12/05 03:15:18;;;;;;;41.50;21.10;;;;;;;;;;5083133;28;20569;-77
2022/12/05 03:17:48;;;;;;;43.23;20.53;;;;;;;;;;5067864;28;20208;-78
2022/12/05 03:20:24;;;;;;;39.00;20.43;;;;;;;;;;5070470;28;20292;-78
2022/12/05 03:22:50;;;;;;;40.37;19.93;;;;;;;;;;5071187;28;20227;-79
2022/12/05 03:25:17;;;;;;;49.93;21.67;;;;;;;;;;5093941;28;20610;-77
2022/12/05 03:27:49;;;;;;;42.67;20.17;;;;;;;;;;5091555;28;20256;-77
2022/12/05 03:30:17;;;;;;;44.43;20.23;;;;;;;;;;5086602;28;20297;-79
2022/12/05 03:32:46;;;;;;;45.70;21.23;;;;;;;;;;5079249;28;20188;-79
2022/12/05 03:35:22;;;;;;;42.83;21.40;;;;;;;;;;5044288;28;20317;-81
2022/12/05 03:37:51;;;;;;;55.43;24.03;;;;;;;;;;5062297;28;20212;-78
2022/12/05 03:40:23;;;;;;;48.27;22.03;;;;;;;;;;5079375;28;20235;-77
2022/12/05 03:42:54;;;;;;;40.57;20.93;;;;;;;;;;5058197;28;20220;-78
2022/12/05 03:45:26;;;;;;;49.07;21.73;;;;;;;;;;5079397;28;20180;-77
2022/12/05 03:48:12;;;;;;;52.00;22.30;;;;;;;;;;5074387;28;20208;-79
2022/12/05 03:50:41;;;;;;;52.50;21.90;;;;;;;;;;5082010;28;20232;-77
2022/12/05 03:53:11;;;;;;;50.53;20.37;;;;;;;;;;5061087;28;20185;-81
2022/12/05 03:55:39;;;;;;;51.10;22.00;;;;;;;;;;5076224;28;20210;-78
2022/12/05 03:58:14;;;;;;;57.63;23.53;;;;;;;;;;5060941;28;20714;-77
2022/12/05 04:00:44;;;;;;;54.40;22.97;;;;;;;;;;5072914;28;21724;-78
2022/12/05 04:03:18;;;;;;;65.30;23.63;;;;;;;;;;5073167;28;20276;-77
2022/12/05 04:05:49;;;;;;;65.73;26.20;;;;;;;;;;5072085;28;20188;-78
2022/12/05 04:08:20;;;;;;;53.17;23.13;;;;;;;;;;5079333;28;20209;-78
2022/12/05 04:10:49;;;;;;;51.90;22.63;;;;;;;;;;5075537;28;20941;-78
2022/12/05 04:13:18;;;;;;;55.50;23.90;;;;;;;;;;5078419;28;20192;-77
2022/12/05 04:18:42;;;;;;;58.77;23.00;;;;;;;;;;5068032;28;20207;-79
2022/12/05 04:26:42;;;;;;;55.53;23.23;;;;;;;;;;5059286;28;20256;-81
2022/12/05 04:29:15;;;;;;;63.30;27.07;;;;;;;;;;5076483;28;20692;-79
2022/12/05 04:31:43;;;;;;;56.07;24.97;;;;;;;;;;5060945;28;20773;-79
2022/12/05 04:34:11;;;;;;;55.63;24.50;;;;;;;;;;5078660;28;20753;-82
2022/12/05 04:36:46;;;;;;;57.67;23.80;;;;;;;;;;5075521;28;20220;-77
2022/12/05 04:39:12;;;;;;;44.87;21.57;;;;;;;;;;5080866;28;20272;-79
2022/12/05 04:41:50;;;;;;;47.00;20.20;;;;;;;;;;5043434;28;20212;-77
2022/12/05 04:44:18;;;;;;;45.50;19.63;;;;;;;;;;5077756;28;20188;-77
2022/12/05 04:46:45;;;;;;;48.97;21.73;;;;;;;;;;5061714;28;20193;-78
2022/12/05 04:49:13;;;;;;;47.33;22.35;;;;;;;;;;5076030;28;20430;-78
2022/12/05 04:51:40;;;;;;;47.20;21.50;;;;;;;;;;5081088;28;20762;-77
2022/12/05 04:54:09;;;;;;;45.67;20.47;;;;;;;;;;5080686;28;20688;-78
2022/12/05 04:56:37;;;;;;;48.43;21.23;;;;;;;;;;5053713;28;20169;-78
2022/12/05 04:59:04;;;;;;;50.13;21.50;;;;;;;;;;5078536;28;20204;-80
2022/12/05 05:01:33;;;;;;;44.13;19.33;;;;;;;;;;5057717;28;21020;-79
2022/12/05 05:04:07;;;;;;;45.77;20.27;;;;;;;;;;5080791;28;20260;-79
2022/12/05 05:06:33;;;;;;;47.40;19.80;;;;;;;;;;5087075;28;20188;-78
2022/12/05 05:08:59;;;;;;;43.03;19.93;;;;;;;;;;5070154;28;20223;-78
2022/12/05 05:11:26;;;;;;;43.67;21.03;;;;;;;;;;5067466;28;20172;-79
2022/12/05 05:13:53;;;;;;;40.63;19.57;;;;;;;;;;5092599;28;20184;-78
2022/12/05 05:16:21;;;;;;;40.10;19.67;;;;;;;;;;5089505;28;20211;-77
2022/12/05 05:18:47;;;;;;;42.20;19.97;;;;;;;;;;5088131;28;20196;-78
2022/12/05 05:21:19;;;;;;;43.73;19.70;;;;;;;;;;5095451;28;20266;-78
2022/12/05 05:23:45;;;;;;;39.00;18.50;;;;;;;;;;5062297;28;20259;-78
2022/12/05 05:26:11;;;;;;;43.70;19.70;;;;;;;;;;5095778;28;20923;-79
2022/12/05 05:28:38;;;;;;;40.30;18.60;;;;;;;;;;5082449;28;20208;-77
2022/12/05 05:31:04;;;;;;;42.40;19.20;;;;;;;;;;5063366;28;20188;-78
2022/12/05 05:33:31;;;;;;;41.00;19.33;;;;;;;;;;5076320;28;20180;-79
2022/12/05 05:36:09;;;;;;;40.30;19.63;;;;;;;;;;5084115;28;20207;-78
2022/12/05 05:38:36;;;;;;;38.17;19.07;;;;;;;;;;5081216;28;20188;-78
2022/12/05 05:41:02;;;;;;;39.63;18.90;;;;;;;;;;5090218;28;20185;-80
2022/12/05 05:43:29;;;;;;;40.43;19.33;;;;;;;;;;5093298;28;20256;-78
2022/12/05 05:45:55;;;;;;;37.73;18.37;;;;;;;;;;5083415;28;20180;-78
2022/12/05 05:48:21;;;;;;;38.35;20.35;;;;;;;;;;5080546;28;20459;-78
2022/12/05 05:50:47;;;;;;;41.47;18.93;;;;;;;;;;5065506;28;20223;-78
2022/12/05 05:53:13;;;;;;;39.03;19.23;;;;;;;;;;5071020;28;20180;-78
2022/12/05 05:55:40;;;;;;;35.83;18.83;;;;;;;;;;5083930;28;20177;-81
2022/12/05 05:58:07;;;;;;;37.45;20.83;;;;;;;;;;5072863;28;20480;-78
2022/12/05 06:00:33;;;;;;;36.53;18.80;;;;;;;;;;5075713;28;20254;-79
2022/12/05 06:02:59;;;;;;;39.97;19.57;;;;;;;;;;5083203;28;20211;-79
2022/12/05 06:05:25;;;;;;;35.63;19.53;;;;;;;;;;5076462;28;20259;-78
2022/12/05 06:07:52;;;;;;;33.63;18.27;;;;;;;;;;5078024;28;20216;-78
2022/12/05 06:10:18;;;;;;;35.72;20.25;;;;;;;;;;5081929;28;20481;-82
2022/12/05 06:12:45;;;;;;;30.77;17.20;;;;;;;;;;5071786;28;20525;-79
2022/12/05 06:15:11;;;;;;;31.17;17.07;;;;;;;;;;5093440;28;20177;-76
2022/12/05 06:17:38;;;;;;;28.87;17.03;;;;;;;;;;5095912;28;20178;-77
2022/12/05 06:20:07;;;;;;;31.60;16.60;;;;;;;;;;5092433;28;20199;-80
2022/12/05 06:22:33;;;;;;;32.90;20.05;;;;;;;;;;5088161;28;20430;-83
2022/12/05 06:24:59;;;;;;;28.60;16.73;;;;;;;;;;5105156;28;20263;-78
2022/12/05 06:27:25;;;;;;;32.40;17.97;;;;;;;;;;5079403;28;20195;-79
2022/12/05 06:29:52;;;;;;;29.03;16.50;;;;;;;;;;5080955;28;20587;-80
2022/12/05 06:32:18;;;;;;;25.00;14.83;;;;;;;;;;5084811;28;20187;-79
2022/12/05 06:34:44;;;;;;;27.00;16.07;;;;;;;;;;5076180;28;20643;-79
2022/12/05 06:37:10;;;;;;;28.70;15.60;;;;;;;;;;5077218;28;20212;-79
2022/12/05 06:39:37;;;;;;;26.93;15.23;;;;;;;;;;5068372;28;20199;-79
2022/12/05 06:42:04;;;;;;;32.70;17.17;;;;;;;;;;5091293;28;20184;-78
2022/12/05 06:44:30;;;;;;;28.87;15.60;;;;;;;;;;5075672;28;20250;-79
2022/12/05 06:46:56;;;;;;;34.33;18.90;;;;;;;;;;5068800;28;20192;-77
2022/12/05 06:49:25;;;;;;;31.17;16.73;;;;;;;;;;5094732;28;20272;-79
2022/12/05 06:51:54;;;;;;;31.87;17.47;;;;;;;;;;5094384;28;20259;-78
2022/12/05 06:54:20;;;;;;;31.07;16.97;;;;;;;;;;5078320;28;20184;-80
2022/12/05 06:56:47;;;;;;;31.63;18.20;;;;;;;;;;5077526;28;20436;-79
2022/12/05 06:59:13;;;;;;;31.37;16.43;;;;;;;;;;5089738;28;20802;-78
2022/12/05 07:01:42;;;;;;;30.13;16.30;;;;;;;;;;5071379;28;20734;-79
2022/12/05 07:04:14;;;;;;;28.13;15.47;;;;;;;;;;5067824;28;20192;-78
2022/12/05 07:06:41;;;;;;;30.95;15.98;;;;;;;;;;5074913;28;20070;-81
2022/12/05 07:09:07;;;;;;;27.60;14.83;;;;;;;;;;5060767;28;20209;-82
2022/12/05 07:11:34;;;;;;;31.47;16.27;;;;;;;;;;5086828;28;20180;-79
2022/12/05 07:14:00;;;;;;;34.97;18.17;;;;;;;;;;5082243;28;20173;-79
2022/12/05 07:16:26;;;;;;;32.90;17.77;;;;;;;;;;5061004;28;20172;-79
2022/12/05 07:18:52;;;;;;;34.70;17.10;;;;;;;;;;5092350;28;20558;-79
2022/12/05 07:21:20;;;;;;;36.17;18.37;;;;;;;;;;5077955;28;20178;-79
2022/12/05 07:23:51;;;;;;;40.90;19.33;;;;;;;;;;5059605;28;20176;-80
2022/12/05 07:26:19;;;;;;;37.93;18.80;;;;;;;;;;5067889;28;20177;-80
2022/12/05 07:28:46;;;;;;;41.23;19.63;;;;;;;;;;5078808;28;20335;-79
2022/12/05 07:31:13;;;;;;;35.87;17.50;;;;;;;;;;5089207;28;20219;-79
2022/12/05 07:33:40;;;;;;;36.90;17.83;;;;;;;;;;5084494;28;20176;-80
2022/12/05 07:36:11;;;;;;;36.30;18.80;;;;;;;;;;5069417;28;20194;-79
2022/12/05 07:38:37;;;;;;;38.23;18.63;;;;;;;;;;5071138;28;20196;-80
2022/12/05 07:41:05;;;;;;;36.73;18.93;;;;;;;;;;5084141;28;20643;-79
2022/12/05 07:43:31;;;;;;;34.33;16.80;;;;;;;;;;5071633;28;20180;-79
2022/12/05 07:46:00;;;;;;;36.60;17.80;;;;;;;;;;5084652;28;20169;-79
2022/12/05 07:48:27;;;;;;;37.20;18.00;;;;;;;;;;5086955;28;20211;-79
2022/12/05 07:50:53;;;;;;;37.27;18.63;;;;;;;;;;5067675;28;20255;-79
2022/12/05 07:53:19;;;;;;;37.90;18.67;;;;;;;;;;5092565;28;20172;-80
2022/12/05 07:55:45;;;;;;;37.23;17.50;;;;;;;;;;5083037;28;20181;-79
2022/12/05 07:58:11;;;;;;;38.07;18.80;;;;;;;;;;5090348;28;20212;-79
2022/12/05 08:00:38;;;;;;;36.70;18.03;;;;;;;;;;5087094;28;20203;-79
2022/12/05 08:03:05;;;;;;;36.53;18.57;;;;;;;;;;5089615;28;20671;-79
2022/12/05 08:05:34;;;;;;;35.30;18.37;;;;;;;;;;5069354;28;20207;-79
2022/12/05 08:08:00;;;;;;;32.90;17.77;;;;;;;;;;5089385;28;20507;-79
2022/12/05 08:10:26;;;;;;;36.83;19.10;;;;;;;;;;5068093;28;20809;-81
2022/12/05 08:12:52;;;;;;;33.10;17.60;;;;;;;;;;5064259;28;20760;-80
2022/12/05 08:15:19;;;;;;;38.93;18.63;;;;;;;;;;5065429;28;20177;-79
2022/12/05 08:17:45;;;;;;;35.03;19.00;;;;;;;;;;5073451;28;20259;-79
2022/12/05 08:20:11;;;;;;;33.33;18.37;;;;;;;;;;5082995;28;20208;-79
2022/12/05 08:22:37;;;;;;;34.20;18.53;;;;;;;;;;5091273;28;20266;-80
2022/12/05 08:25:04;;;;;;;34.10;18.13;;;;;;;;;;5088803;28;20188;-81
2022/12/05 08:27:30;;;;;;;35.10;18.40;;;;;;;;;;5086984;28;20198;-80
2022/12/05 08:29:57;;;;;;;33.93;18.20;;;;;;;;;;5087370;28;20287;-80
2022/12/05 08:32:23;;;;;;;37.13;19.83;;;;;;;;;;5083880;28;20275;-80
2022/12/05 08:34:50;;;;;;;34.00;18.13;;;;;;;;;;5088039;28;20265;-80
2022/12/05 08:37:16;;;;;;;33.53;18.80;;;;;;;;;;5083866;28;20192;-80
2022/12/05 08:39:42;;;;;;;34.67;19.13;;;;;;;;;;5087565;28;20196;-79
2022/12/05 08:42:09;;;;;;;37.57;18.80;;;;;;;;;;5062704;28;20204;-79
2022/12/05 08:44:35;;;;;;;35.07;18.30;;;;;;;;;;5085567;28;20173;-81
2022/12/05 08:47:01;;;;;;;39.53;23.13;;;;;;;;;;5058701;28;20187;-82
2022/12/05 08:49:27;;;;;;;36.63;19.93;;;;;;;;;;5051205;28;20204;-80
2022/12/05 08:51:53;;;;;;;32.20;18.77;;;;;;;;;;5069233;28;20196;-80
2022/12/05 08:54:20;;;;;;;37.23;19.03;;;;;;;;;;5067814;28;20608;-81
2022/12/05 08:56:46;;;;;;;36.33;19.10;;;;;;;;;;5063324;28;20169;-81
2022/12/05 08:59:12;;;;;;;38.87;20.00;;;;;;;;;;5074011;28;20279;-81
2022/12/05 09:01:39;;;;;;;38.87;19.47;;;;;;;;;;5074866;28;20168;-80
2022/12/05 09:04:06;;;;;;;33.17;18.53;;;;;;;;;;5073067;28;20189;-80
2022/12/05 09:06:34;;;;;;;37.07;20.27;;;;;;;;;;5073377;28;20183;-80
2022/12/05 09:09:03;;;;;;;33.07;18.63;;;;;;;;;;5070755;28;20205;-79
2022/12/05 09:11:31;;;;;;;34.07;18.40;;;;;;;;;;5069258;28;20184;-80
2022/12/05 09:13:58;;;;;;;31.60;17.87;;;;;;;;;;5086981;28;20731;-80
2022/12/05 09:16:28;;;;;;;31.33;17.53;;;;;;;;;;5089479;28;20171;-80
2022/12/05 09:18:55;;;;;;;32.17;17.53;;;;;;;;;;5069593;28;20208;-80
2022/12/05 09:21:22;;;;;;;29.93;16.77;;;;;;;;;;5088321;28;20366;-80
2022/12/05 09:23:52;;;;;;;34.97;18.70;;;;;;;;;;5085634;28;20641;-80
2022/12/05 09:26:20;;;;;;;32.23;19.03;;;;;;;;;;5083405;28;20180;-80
2022/12/05 09:28:46;;;;;;;31.60;17.80;;;;;;;;;;5084765;28;20672;-80
2022/12/05 09:31:16;;;;;;;32.73;18.50;;;;;;;;;;5081951;28;20164;-80
2022/12/05 09:33:42;;;;;;;31.07;17.70;;;;;;;;;;5069746;28;20198;-79
2022/12/05 09:36:12;;;;;;;29.23;17.43;;;;;;;;;;5071856;28;20495;-80
2022/12/05 09:38:41;;;;;;;32.40;18.23;;;;;;;;;;5092202;28;20228;-80
2022/12/05 09:42:03;;;;;;;32.07;17.40;;;;;;;;;;5085198;28;20195;-80
2022/12/05 09:44:14;;;;;;;34.77;18.80;;;;;;;;;;5068341;28;20208;-80
2022/12/05 09:46:52;;;;;;;34.43;18.67;;;;;;;;;;5086859;28;20180;-81
2022/12/05 09:49:18;;;;;;;30.53;17.60;;;;;;;;;;5073616;28;20211;-81
2022/12/05 09:51:46;;;;;;;25.80;16.70;;;;;;;;;;5076753;28;20187;-79
2022/12/05 09:54:12;;;;;;;31.63;18.00;;;;;;;;;;5087211;28;20172;-79
2022/12/05 09:56:41;;;;;;;31.90;18.20;;;;;;;;;;5091147;28;20237;-81
2022/12/05 09:59:16;;;;;;;31.63;18.60;;;;;;;;;;5091198;28;20196;-80
2022/12/05 10:01:45;;;;;;;26.40;16.90;;;;;;;;;;5095169;28;20804;-79
2022/12/05 10:04:28;;;;;;;27.83;17.30;;;;;;;;;;5089875;28;20810;-79
2022/12/05 10:06:54;;;;;;;26.13;16.73;;;;;;;;;;5091358;28;20188;-79
2022/12/05 10:09:47;;;;;;;29.13;17.07;;;;;;;;;;5082665;28;20676;-81
2022/12/05 10:12:21;;;;;;;26.03;16.87;;;;;;;;;;5090549;28;20176;-79
2022/12/05 10:14:58;;;;;;;27.30;16.60;;;;;;;;;;5060283;28;20192;-79
2022/12/05 10:17:36;;;;;;;24.20;15.50;;;;;;;;;;5072196;28;20255;-79
2022/12/05 10:20:05;;;;;;;26.73;16.57;;;;;;;;;;5091040;28;20199;-77
2022/12/05 10:22:39;;;;;;;28.77;17.67;;;;;;;;;;5091068;28;20165;-79
2022/12/05 10:25:06;;;;;;;25.47;16.63;;;;;;;;;;5094427;28;20184;-79
2022/12/05 10:27:35;;;;;;;26.17;16.33;;;;;;;;;;5066930;28;20188;-79
2022/12/05 10:30:07;;;;;;;27.43;16.23;;;;;;;;;;5073882;28;20295;-79
2022/12/05 10:32:40;;;;;;;27.37;16.40;;;;;;;;;;5056447;28;20177;-80
2022/12/05 10:35:26;;;;;;;27.80;17.37;;;;;;;;;;5077018;28;20205;-79
2022/12/05 10:37:54;;;;;;;26.93;16.60;;;;;;;;;;5055450;28;20901;-79
2022/12/05 10:40:20;;;;;;;25.27;15.40;;;;;;;;;;5092725;28;20226;-79
2022/12/05 10:42:47;;;;;;;24.67;16.53;;;;;;;;;;5071058;28;20184;-80
2022/12/05 10:45:16;;;;;;;27.10;16.97;;;;;;;;;;5089067;28;20207;-79
2022/12/05 10:47:43;;;;;;;24.97;16.13;;;;;;;;;;5083411;28;20196;-79
2022/12/05 10:50:19;;;;;;;28.67;17.37;;;;;;;;;;5080692;28;20575;-80
2022/12/05 10:52:46;;;;;;;28.53;17.33;;;;;;;;;;5068618;28;20199;-79
2022/12/05 10:55:16;;;;;;;25.83;16.50;;;;;;;;;;5081067;28;20211;-79
2022/12/05 10:57:44;;;;;;;26.67;16.83;;;;;;;;;;5072847;28;20785;-79
2022/12/05 11:00:14;;;;;;;28.07;16.87;;;;;;;;;;5073117;28;20216;-79
2022/12/05 11:02:41;;;;;;;27.43;17.23;;;;;;;;;;5085010;28;20594;-79
2022/12/05 11:05:08;;;;;;;27.23;16.87;;;;;;;;;;5071352;28;20184;-79
2022/12/05 11:07:37;;;;;;;27.63;17.27;;;;;;;;;;5079931;28;20188;-79
2022/12/05 11:10:19;;;;;;;27.90;17.23;;;;;;;;;;5070070;28;20201;-79
2022/12/05 11:12:46;;;;;;;27.50;16.70;;;;;;;;;;5052921;28;20208;-79
2022/12/05 11:15:18;;;;;;;26.07;16.93;;;;;;;;;;5063549;28;20181;-79
2022/12/05 11:18:18;;;;;;;27.33;17.57;;;;;;;;;;5056999;28;20219;-80
2022/12/05 11:20:45;;;;;;;25.70;16.27;;;;;;;;;;5083694;28;20188;-79
2022/12/05 11:23:21;;;;;;;23.77;14.83;;;;;;;;;;5070197;28;20189;-79
2022/12/05 11:25:48;;;;;;;26.57;17.40;;;;;;;;;;5077939;28;20219;-80
2022/12/05 11:28:18;;;;;;;25.30;16.83;;;;;;;;;;5073348;28;20208;-80
2022/12/05 11:30:59;;;;;;;28.70;17.73;;;;;;;;;;5068108;28;20604;-82
2022/12/05 11:33:27;;;;;;;24.70;16.83;;;;;;;;;;5080948;28;20183;-81
2022/12/05 11:35:56;;;;;;;25.50;16.00;;;;;;;;;;5074816;28;20295;-83
2022/12/05 11:38:27;;;;;;;24.63;16.00;;;;;;;;;;5092356;28;20219;-81
2022/12/05 11:41:13;;;;;;;24.27;16.37;;;;;;;;;;5072873;28;20191;-78
2022/12/05 11:43:58;;;;;;;24.23;15.60;;;;;;;;;;5072760;28;20199;-80
2022/12/05 11:46:28;;;;;;;24.73;15.90;;;;;;;;;;5070952;28;20170;-80
2022/12/05 11:49:02;;;;;;;27.37;17.07;;;;;;;;;;5077640;28;20250;-80
2022/12/05 11:51:29;;;;;;;26.27;16.53;;;;;;;;;;5068464;28;20302;-80
2022/12/05 11:54:05;;;;;;;26.90;16.90;;;;;;;;;;5067243;28;20260;-79
2022/12/05 11:56:38;;;;;;;25.63;16.37;;;;;;;;;;5086045;28;20230;-79
2022/12/05 11:59:16;;;;;;;25.47;16.70;;;;;;;;;;5061493;28;20205;-79
2022/12/05 12:01:55;;;;;;;25.97;17.03;;;;;;;;;;5080689;28;20234;-75
2022/12/05 12:04:37;;;;;;;27.13;17.53;;;;;;;;;;5058851;28;20176;-81
2022/12/05 12:07:12;;;;;;;25.40;16.20;;;;;;;;;;5086797;28;20188;-79
2022/12/05 12:10:05;;;;;;;27.57;17.10;;;;;;;;;;5090427;28;20207;-81
2022/12/05 12:12:35;;;;;;;29.17;18.07;;;;;;;;;;5068277;28;20224;-82
2022/12/05 12:15:21;;;;;;;26.30;17.10;;;;;;;;;;5070961;28;20197;-82
2022/12/05 12:17:55;;;;;;;26.37;16.97;;;;;;;;;;5071705;28;20179;-81
2022/12/05 12:20:33;;;;;;;27.30;17.43;;;;;;;;;;5079118;28;20199;-82
2022/12/05 12:23:00;;;;;;;26.13;17.57;;;;;;;;;;5065991;28;20309;-82
2022/12/05 12:25:41;;;;;;;27.93;17.87;;;;;;;;;;5078619;28;20662;-81
2022/12/05 12:28:08;;;;;;;25.93;16.93;;;;;;;;;;5078702;28;20255;-83
2022/12/05 12:30:49;;;;;;;26.57;16.87;;;;;;;;;;5068082;28;20208;-76
2022/12/05 12:33:19;;;;;;;29.33;18.13;;;;;;;;;;5088398;28;20169;-79
2022/12/05 12:35:45;;;;;;;27.63;18.00;;;;;;;;;;5090076;28;20192;-82
2022/12/05 12:38:12;;;;;;;26.93;17.60;;;;;;;;;;5082248;28;20200;-79
2022/12/05 12:40:44;;;;;;;28.60;16.90;;;;;;;;;;5063752;28;20521;-82
2022/12/05 12:43:26;;;;;;;24.70;16.33;;;;;;;;;;5086573;28;21592;-80
2022/12/05 12:46:08;;;;;;;25.93;16.97;;;;;;;;;;5053724;28;20692;-81
2022/12/05 12:48:44;;;;;;;26.63;17.00;;;;;;;;;;5083799;28;20298;-81
2022/12/05 12:51:12;;;;;;;24.93;16.13;;;;;;;;;;5053268;28;20213;-81
2022/12/05 12:53:47;;;;;;;24.07;14.97;;;;;;;;;;5066300;28;20237;-81
2022/12/05 12:56:37;;;;;;;30.33;18.97;;;;;;;;;;5081479;28;20293;-81
2022/12/05 12:59:15;;;;;;;26.40;16.57;;;;;;;;;;5071506;28;20200;-79
2022/12/05 13:01:44;;;;;;;23.43;15.63;;;;;;;;;;5090872;28;20273;-78
2022/12/05 13:04:17;;;;;;;26.30;16.43;;;;;;;;;;5094975;28;20172;-78
2022/12/05 13:06:49;;;;;;;25.50;17.03;;;;;;;;;;5062802;28;20246;-79
2022/12/05 13:09:18;;;;;;;24.37;16.77;;;;;;;;;;5095890;28;20208;-79
2022/12/05 13:11:46;;;;;;;24.07;16.60;;;;;;;;;;5041442;28;20202;-79
2022/12/05 13:14:14;;;;;;;25.30;16.97;;;;;;;;;;5087767;28;20805;-78
2022/12/05 13:16:42;;;;;;;24.73;15.57;;;;;;;;;;5098173;28;20202;-79
2022/12/05 13:19:18;;;;;;;21.80;15.00;;;;;;;;;;5101007;28;20233;-79
2022/12/05 13:21:44;;;;;;;24.17;16.50;;;;;;;;;;5091672;28;20180;-79
2022/12/05 13:24:11;;;;;;;23.53;16.17;;;;;;;;;;5092554;28;20181;-78
2022/12/05 13:26:45;;;;;;;25.30;16.53;;;;;;;;;;5076607;28;20226;-78
2022/12/05 13:29:19;;;;;;;26.23;17.57;;;;;;;;;;5087666;28;20715;-79
2022/12/05 13:31:46;;;;;;;23.90;16.33;;;;;;;;;;5089294;28;20234;-78
2022/12/05 13:34:28;;;;;;;24.80;16.80;;;;;;;;;;5083277;28;20192;-77
2022/12/05 13:42:36;;;;;;;31.23;20.00;;;;;;;;;;5067877;28;20184;-79
2022/12/05 13:45:03;;;;;;;27.40;18.77;;;;;;;;;;5085533;28;20279;-78
2022/12/05 13:47:32;;;;;;;29.47;19.17;;;;;;;;;;5071774;28;20196;-79
2022/12/05 13:50:08;;;;;;;27.47;18.37;;;;;;;;;;5071043;28;20208;-77
2022/12/05 13:52:46;;;;;;;24.63;17.40;;;;;;;;;;5088656;28;20230;-77
2022/12/05 13:55:32;;;;;;;29.07;19.27;;;;;;;;;;5084230;28;20242;-76
2022/12/05 13:57:59;;;;;;;24.07;15.87;;;;;;;;;;5080979;28;20839;-76
2022/12/05 14:00:30;;;;;;;26.50;17.70;;;;;;;;;;5070353;28;20189;-75
2022/12/05 14:03:03;;;;;;;23.70;16.13;;;;;;;;;;5064304;28;20243;-77
2022/12/05 14:05:37;;;;;;;22.10;15.43;;;;;;;;;;5084802;28;20189;-76
2022/12/05 14:08:22;;;;;;;24.43;15.77;;;;;;;;;;5085519;28;20291;-76
2022/12/05 14:10:51;;;;;;;25.00;14.80;;;;;;;;;;5077885;28;21002;-76
2022/12/05 14:13:17;;;;;;;24.50;16.10;;;;;;;;;;5085526;28;20192;-79
2022/12/05 14:15:44;;;;;;;24.77;15.77;;;;;;;;;;5094615;28;20176;-78
2022/12/05 14:18:16;;;;;;;22.23;14.53;;;;;;;;;;5073990;28;20215;-88
2022/12/05 14:20:45;;;;;;;27.07;17.43;;;;;;;;;;5062959;28;20214;-80
2022/12/05 14:23:12;;;;;;;29.80;19.23;;;;;;;;;;5071770;28;20280;-79
2022/12/05 14:25:58;;;;;;;27.23;16.70;;;;;;;;;;5086165;28;20271;-79
2022/12/05 14:28:24;;;;;;;20.70;14.60;;;;;;;;;;5085508;28;20227;-79
2022/12/05 14:30:50;;;;;;;20.50;14.47;;;;;;;;;;5086016;28;20197;-79
2022/12/05 14:33:17;;;;;;;21.40;14.43;;;;;;;;;;5083096;28;20192;-79
2022/12/05 14:35:46;;;;;;;24.70;13.63;;;;;;;;;;5085323;28;20346;-80
2022/12/05 14:38:27;;;;;;;23.17;14.70;;;;;;;;;;5088850;28;20241;-79
2022/12/05 14:40:53;;;;;;;23.77;16.13;;;;;;;;;;5071723;28;20204;-79
2022/12/05 14:43:21;;;;;;;21.67;14.73;;;;;;;;;;5093177;28;20663;-79
2022/12/05 14:45:51;;;;;;;23.40;15.00;;;;;;;;;;5088763;28;20180;-79